sensor_id;sensor_type;location;lat;lon;timestamp;P1;durP1;ratioP1;P2;durP2;ratioP2
2644;SDS011;15377;48.540;9.268;2023-03-01T13:23:58;19.50;;;12.90;;
2644;SDS011;15377;48.540;9.268;2023-03-01T13:26:23;22.00;;;14.90;;
2644;SDS011;15377;48.540;9.268;2023-03-01T13:28:52;24.07;;;15.43;;
2644;SDS011;15377;48.540;9.268;2023-03-01T13:33:53;25.33;;;16.50;;
2644;SDS011;15377;48.540;9.268;2023-03-01T13:39:32;24.20;;;15.83;;
2644;SDS011;15377;48.540;9.268;2023-03-01T13:42:25;24.50;;;15.90;;
2644;SDS011;15377;48.540;9.268;2023-03-01T13:44:57;21.27;;;14.57;;
2644;SDS011;15377;48.540;9.268;2023-03-01T13:47:23;26.93;;;16.10;;
2644;SDS011;15377;48.540;9.268;2023-03-01T13:52:58;29.70;;;17.20;;
2644;SDS011;15377;48.540;9.268;2023-03-01T13:55:52;26.40;;;18.00;;
2644;SDS011;15377;48.540;9.268;2023-03-01T13:58:03;24.87;;;15.27;;
2644;SDS011;15377;48.540;9.268;2023-03-01T14:00:39;22.50;;;15.17;;
2644;SDS011;15377;48.540;9.268;2023-03-01T14:05:36;22.10;;;15.30;;
2644;SDS011;15377;48.540;9.268;2023-03-01T14:08:03;25.23;;;15.50;;
2644;SDS011;15377;48.540;9.268;2023-03-01T14:10:32;23.37;;;15.50;;
2644;SDS011;15377;48.540;9.268;2023-03-01T14:13:14;24.57;;;16.63;;
2644;SDS011;15377;48.540;9.268;2023-03-01T14:15:57;24.00;;;16.70;;
2644;SDS011;15377;48.540;9.268;2023-03-01T14:19:18;22.00;;;14.40;;
2644;SDS011;15377;48.540;9.268;2023-03-01T14:21:49;21.63;;;15.00;;
2644;SDS011;15377;48.540;9.268;2023-03-01T14:24:27;24.10;;;16.37;;
2644;SDS011;15377;48.540;9.268;2023-03-01T14:26:52;25.43;;;13.83;;
2644;SDS011;15377;48.540;9.268;2023-03-01T14:29:25;19.63;;;12.50;;
2644;SDS011;15377;48.540;9.268;2023-03-01T14:32:18;22.40;;;15.07;;
2644;SDS011;15377;48.540;9.268;2023-03-01T14:34:46;23.80;;;16.40;;
2644;SDS011;15377;48.540;9.268;2023-03-01T14:39:59;30.10;;;15.33;;
2644;SDS011;15377;48.540;9.268;2023-03-01T14:42:29;30.73;;;25.37;;
2644;SDS011;15377;48.540;9.268;2023-03-01T14:44:59;23.57;;;15.27;;
2644;SDS011;15377;48.540;9.268;2023-03-01T14:47:28;18.50;;;14.20;;
2644;SDS011;15377;48.540;9.268;2023-03-01T14:49:58;29.40;;;25.70;;
2644;SDS011;15377;48.540;9.268;2023-03-01T14:52:33;19.80;;;15.43;;
2644;SDS011;15377;48.540;9.268;2023-03-01T14:55:03;23.37;;;14.70;;
2644;SDS011;15377;48.540;9.268;2023-03-01T14:57:30;23.13;;;14.17;;
2644;SDS011;15377;48.540;9.268;2023-03-01T15:00:00;24.17;;;16.33;;
2644;SDS011;15377;48.540;9.268;2023-03-01T15:02:30;22.17;;;17.10;;
2644;SDS011;15377;48.540;9.268;2023-03-01T15:04:57;17.00;;;12.33;;
2644;SDS011;15377;48.540;9.268;2023-03-01T15:07:31;23.07;;;14.77;;
2644;SDS011;15377;48.540;9.268;2023-03-01T15:10:00;22.27;;;14.67;;
2644;SDS011;15377;48.540;9.268;2023-03-01T15:14:56;25.80;;;16.27;;
2644;SDS011;15377;48.540;9.268;2023-03-01T15:17:26;25.20;;;15.63;;
2644;SDS011;15377;48.540;9.268;2023-03-01T15:19:59;22.37;;;15.23;;
2644;SDS011;15377;48.540;9.268;2023-03-01T15:22:26;21.90;;;15.20;;
2644;SDS011;15377;48.540;9.268;2023-03-01T15:24:52;22.30;;;13.40;;
2644;SDS011;15377;48.540;9.268;2023-03-01T15:27:19;23.50;;;15.87;;
2644;SDS011;15377;48.540;9.268;2023-03-01T15:29:59;24.30;;;13.60;;
2644;SDS011;15377;48.540;9.268;2023-03-01T15:34:57;23.30;;;15.60;;
2644;SDS011;15377;48.540;9.268;2023-03-01T15:37:38;29.53;;;19.63;;
2644;SDS011;15377;48.540;9.268;2023-03-01T15:40:23;24.63;;;15.17;;
2644;SDS011;15377;48.540;9.268;2023-03-01T15:42:58;22.67;;;15.37;;
2644;SDS011;15377;48.540;9.268;2023-03-01T15:45:29;23.37;;;16.30;;
2644;SDS011;15377;48.540;9.268;2023-03-01T15:48:02;25.10;;;16.70;;
2644;SDS011;15377;48.540;9.268;2023-03-01T15:50:33;24.07;;;15.50;;
2644;SDS011;15377;48.540;9.268;2023-03-01T15:53:03;23.30;;;14.57;;
2644;SDS011;15377;48.540;9.268;2023-03-01T15:55:33;24.87;;;16.20;;
2644;SDS011;15377;48.540;9.268;2023-03-01T16:00:25;21.20;;;14.80;;
2644;SDS011;15377;48.540;9.268;2023-03-01T16:02:51;21.43;;;15.30;;
2644;SDS011;15377;48.540;9.268;2023-03-01T16:05:21;28.93;;;14.93;;
2644;SDS011;15377;48.540;9.268;2023-03-01T16:07:49;21.63;;;14.80;;
2644;SDS011;15377;48.540;9.268;2023-03-01T16:10:15;22.50;;;15.33;;
2644;SDS011;15377;48.540;9.268;2023-03-01T16:12:41;28.70;;;19.13;;
2644;SDS011;15377;48.540;9.268;2023-03-01T16:15:20;27.97;;;22.13;;
2644;SDS011;15377;48.540;9.268;2023-03-01T16:17:47;19.60;;;15.20;;
2644;SDS011;15377;48.540;9.268;2023-03-01T16:20:13;25.90;;;16.30;;
2644;SDS011;15377;48.540;9.268;2023-03-01T16:22:41;23.80;;;16.77;;
2644;SDS011;15377;48.540;9.268;2023-03-01T16:25:08;26.77;;;19.60;;
2644;SDS011;15377;48.540;9.268;2023-03-01T16:27:38;22.60;;;15.20;;
2644;SDS011;15377;48.540;9.268;2023-03-01T16:30:04;25.43;;;16.97;;
2644;SDS011;15377;48.540;9.268;2023-03-01T16:32:31;23.00;;;15.50;;
2644;SDS011;15377;48.540;9.268;2023-03-01T16:34:57;25.67;;;17.07;;
2644;SDS011;15377;48.540;9.268;2023-03-01T16:37:22;20.50;;;14.23;;
2644;SDS011;15377;48.540;9.268;2023-03-01T16:39:47;23.07;;;14.60;;
2644;SDS011;15377;48.540;9.268;2023-03-01T16:42:16;21.20;;;14.60;;
2644;SDS011;15377;48.540;9.268;2023-03-01T16:44:42;27.37;;;16.63;;
2644;SDS011;15377;48.540;9.268;2023-03-01T16:47:07;24.73;;;16.23;;
2644;SDS011;15377;48.540;9.268;2023-03-01T16:49:33;25.27;;;16.87;;
2644;SDS011;15377;48.540;9.268;2023-03-01T16:51:58;45.10;;;32.57;;
2644;SDS011;15377;48.540;9.268;2023-03-01T16:54:24;23.87;;;16.13;;
2644;SDS011;15377;48.540;9.268;2023-03-01T16:56:49;18.83;;;12.90;;
2644;SDS011;15377;48.540;9.268;2023-03-01T16:59:15;23.50;;;14.73;;
2644;SDS011;15377;48.540;9.268;2023-03-01T17:01:41;24.20;;;16.00;;
2644;SDS011;15377;48.540;9.268;2023-03-01T17:04:09;27.33;;;20.50;;
2644;SDS011;15377;48.540;9.268;2023-03-01T17:06:36;31.17;;;24.00;;
2644;SDS011;15377;48.540;9.268;2023-03-01T17:09:01;34.40;;;29.63;;
2644;SDS011;15377;48.540;9.268;2023-03-01T17:11:27;22.67;;;14.20;;
2644;SDS011;15377;48.540;9.268;2023-03-01T17:13:52;25.00;;;17.50;;
2644;SDS011;15377;48.540;9.268;2023-03-01T17:16:18;26.67;;;18.07;;
2644;SDS011;15377;48.540;9.268;2023-03-01T17:18:45;25.27;;;15.07;;
2644;SDS011;15377;48.540;9.268;2023-03-01T17:21:13;30.95;;;24.85;;
2644;SDS011;15377;48.540;9.268;2023-03-01T17:23:40;29.40;;;18.97;;
2644;SDS011;15377;48.540;9.268;2023-03-01T17:26:08;29.40;;;19.95;;
2644;SDS011;15377;48.540;9.268;2023-03-01T17:28:33;28.70;;;19.57;;
2644;SDS011;15377;48.540;9.268;2023-03-01T17:31:01;28.60;;;18.93;;
2644;SDS011;15377;48.540;9.268;2023-03-01T17:33:28;26.23;;;18.95;;
2644;SDS011;15377;48.540;9.268;2023-03-01T17:35:55;26.10;;;17.27;;
2644;SDS011;15377;48.540;9.268;2023-03-01T17:38:20;27.53;;;19.43;;
2644;SDS011;15377;48.540;9.268;2023-03-01T17:40:46;30.47;;;21.43;;
2644;SDS011;15377;48.540;9.268;2023-03-01T17:43:12;23.23;;;16.57;;
2644;SDS011;15377;48.540;9.268;2023-03-01T17:45:38;25.30;;;17.02;;
2644;SDS011;15377;48.540;9.268;2023-03-01T17:48:04;25.77;;;17.97;;
2644;SDS011;15377;48.540;9.268;2023-03-01T17:50:31;27.92;;;17.38;;
2644;SDS011;15377;48.540;9.268;2023-03-01T17:52:57;24.88;;;17.10;;
2644;SDS011;15377;48.540;9.268;2023-03-01T17:55:23;26.90;;;16.37;;
2644;SDS011;15377;48.540;9.268;2023-03-01T17:57:48;31.40;;;21.03;;
2644;SDS011;15377;48.540;9.268;2023-03-01T18:00:14;25.40;;;15.77;;
2644;SDS011;15377;48.540;9.268;2023-03-01T18:02:41;25.48;;;15.65;;
2644;SDS011;15377;48.540;9.268;2023-03-01T18:05:07;27.50;;;17.60;;
2644;SDS011;15377;48.540;9.268;2023-03-01T18:07:33;22.58;;;16.13;;
2644;SDS011;15377;48.540;9.268;2023-03-01T18:09:59;22.60;;;15.10;;
2644;SDS011;15377;48.540;9.268;2023-03-01T18:12:24;34.50;;;20.53;;
2644;SDS011;15377;48.540;9.268;2023-03-01T18:14:50;29.20;;;17.47;;
2644;SDS011;15377;48.540;9.268;2023-03-01T18:17:18;31.40;;;17.85;;
2644;SDS011;15377;48.540;9.268;2023-03-01T18:19:45;24.38;;;16.00;;
2644;SDS011;15377;48.540;9.268;2023-03-01T18:22:10;24.37;;;15.90;;
2644;SDS011;15377;48.540;9.268;2023-03-01T18:24:36;26.30;;;15.68;;
2644;SDS011;15377;48.540;9.268;2023-03-01T18:27:02;26.43;;;17.47;;
2644;SDS011;15377;48.540;9.268;2023-03-01T18:29:28;26.83;;;17.90;;
2644;SDS011;15377;48.540;9.268;2023-03-01T18:31:53;29.70;;;16.87;;
2644;SDS011;15377;48.540;9.268;2023-03-01T18:34:19;29.90;;;17.57;;
2644;SDS011;15377;48.540;9.268;2023-03-01T18:36:44;27.13;;;16.90;;
2644;SDS011;15377;48.540;9.268;2023-03-01T18:39:10;33.20;;;22.17;;
2644;SDS011;15377;48.540;9.268;2023-03-01T18:41:36;36.17;;;22.10;;
2644;SDS011;15377;48.540;9.268;2023-03-01T18:44:02;27.97;;;17.73;;
2644;SDS011;15377;48.540;9.268;2023-03-01T18:46:29;29.38;;;18.00;;
2644;SDS011;15377;48.540;9.268;2023-03-01T18:48:54;31.30;;;18.90;;
2644;SDS011;15377;48.540;9.268;2023-03-01T18:51:21;30.40;;;18.67;;
2644;SDS011;15377;48.540;9.268;2023-03-01T18:53:48;31.23;;;18.65;;
2644;SDS011;15377;48.540;9.268;2023-03-01T18:56:14;29.80;;;19.23;;
2644;SDS011;15377;48.540;9.268;2023-03-01T18:58:40;30.00;;;17.43;;
2644;SDS011;15377;48.540;9.268;2023-03-01T19:01:16;30.70;;;17.85;;
2644;SDS011;15377;48.540;9.268;2023-03-01T19:03:44;26.27;;;16.55;;
2644;SDS011;15377;48.540;9.268;2023-03-01T19:06:09;36.87;;;19.73;;
2644;SDS011;15377;48.540;9.268;2023-03-01T19:08:35;26.33;;;18.17;;
2644;SDS011;15377;48.540;9.268;2023-03-01T19:11:01;30.70;;;18.97;;
2644;SDS011;15377;48.540;9.268;2023-03-01T19:13:29;31.65;;;19.33;;
2644;SDS011;15377;48.540;9.268;2023-03-01T19:16:02;26.70;;;17.23;;
2644;SDS011;15377;48.540;9.268;2023-03-01T19:18:35;29.98;;;18.20;;
2644;SDS011;15377;48.540;9.268;2023-03-01T19:21:04;26.75;;;17.05;;
2644;SDS011;15377;48.540;9.268;2023-03-01T19:23:30;32.35;;;18.52;;
2644;SDS011;15377;48.540;9.268;2023-03-01T19:25:59;29.83;;;18.13;;
2644;SDS011;15377;48.540;9.268;2023-03-01T19:28:38;28.77;;;17.63;;
2644;SDS011;15377;48.540;9.268;2023-03-01T19:31:08;28.98;;;18.60;;
2644;SDS011;15377;48.540;9.268;2023-03-01T19:33:35;30.60;;;20.42;;
2644;SDS011;15377;48.540;9.268;2023-03-01T19:36:01;31.57;;;18.43;;
2644;SDS011;15377;48.540;9.268;2023-03-01T19:38:27;29.95;;;19.25;;
2644;SDS011;15377;48.540;9.268;2023-03-01T19:40:53;28.47;;;19.67;;
2644;SDS011;15377;48.540;9.268;2023-03-01T19:43:20;29.33;;;19.13;;
2644;SDS011;15377;48.540;9.268;2023-03-01T19:45:49;34.80;;;19.17;;
2644;SDS011;15377;48.540;9.268;2023-03-01T19:48:18;32.72;;;20.73;;
2644;SDS011;15377;48.540;9.268;2023-03-01T19:50:44;40.13;;;22.00;;
2644;SDS011;15377;48.540;9.268;2023-03-01T19:53:13;34.27;;;20.90;;
2644;SDS011;15377;48.540;9.268;2023-03-01T19:55:39;28.10;;;18.77;;
2644;SDS011;15377;48.540;9.268;2023-03-01T19:58:05;32.27;;;19.63;;
2644;SDS011;15377;48.540;9.268;2023-03-01T20:00:31;48.67;;;25.90;;
2644;SDS011;15377;48.540;9.268;2023-03-01T20:02:57;34.63;;;20.73;;
2644;SDS011;15377;48.540;9.268;2023-03-01T20:05:23;46.87;;;25.60;;
2644;SDS011;15377;48.540;9.268;2023-03-01T20:07:49;53.80;;;28.30;;
2644;SDS011;15377;48.540;9.268;2023-03-01T20:10:15;46.92;;;25.10;;
2644;SDS011;15377;48.540;9.268;2023-03-01T20:12:41;51.15;;;27.38;;
2644;SDS011;15377;48.540;9.268;2023-03-01T20:15:06;38.20;;;22.03;;
2644;SDS011;15377;48.540;9.268;2023-03-01T20:17:32;35.78;;;21.27;;
2644;SDS011;15377;48.540;9.268;2023-03-01T20:19:58;33.73;;;20.17;;
2644;SDS011;15377;48.540;9.268;2023-03-01T20:22:23;39.47;;;20.27;;
2644;SDS011;15377;48.540;9.268;2023-03-01T20:24:48;38.27;;;20.73;;
2644;SDS011;15377;48.540;9.268;2023-03-01T20:27:14;37.27;;;20.53;;
2644;SDS011;15377;48.540;9.268;2023-03-01T20:29:39;31.73;;;18.67;;
2644;SDS011;15377;48.540;9.268;2023-03-01T20:32:04;33.17;;;20.27;;
2644;SDS011;15377;48.540;9.268;2023-03-01T20:34:30;29.97;;;18.00;;
2644;SDS011;15377;48.540;9.268;2023-03-01T20:36:55;31.47;;;20.07;;
2644;SDS011;15377;48.540;9.268;2023-03-01T20:39:20;30.33;;;19.70;;
2644;SDS011;15377;48.540;9.268;2023-03-01T20:41:46;29.27;;;20.83;;
2644;SDS011;15377;48.540;9.268;2023-03-01T20:44:11;33.20;;;19.57;;
2644;SDS011;15377;48.540;9.268;2023-03-01T20:46:37;32.33;;;18.17;;
2644;SDS011;15377;48.540;9.268;2023-03-01T20:49:03;31.40;;;19.10;;
2644;SDS011;15377;48.540;9.268;2023-03-01T20:51:29;31.88;;;19.30;;
2644;SDS011;15377;48.540;9.268;2023-03-01T20:53:54;31.87;;;20.83;;
2644;SDS011;15377;48.540;9.268;2023-03-01T20:56:20;31.77;;;20.13;;
2644;SDS011;15377;48.540;9.268;2023-03-01T20:58:46;31.35;;;19.95;;
2644;SDS011;15377;48.540;9.268;2023-03-01T21:01:16;31.13;;;19.47;;
2644;SDS011;15377;48.540;9.268;2023-03-01T21:03:43;34.17;;;20.15;;
2644;SDS011;15377;48.540;9.268;2023-03-01T21:06:09;31.70;;;19.27;;
2644;SDS011;15377;48.540;9.268;2023-03-01T21:08:35;31.30;;;18.90;;
2644;SDS011;15377;48.540;9.268;2023-03-01T21:11:01;30.33;;;18.87;;
2644;SDS011;15377;48.540;9.268;2023-03-01T21:13:27;40.08;;;20.10;;
2644;SDS011;15377;48.540;9.268;2023-03-01T21:15:59;45.30;;;20.10;;
2644;SDS011;15377;48.540;9.268;2023-03-01T21:18:28;29.92;;;19.00;;
2644;SDS011;15377;48.540;9.268;2023-03-01T21:20:58;32.22;;;19.42;;
2644;SDS011;15377;48.540;9.268;2023-03-01T21:23:29;29.83;;;19.30;;
2644;SDS011;15377;48.540;9.268;2023-03-01T21:26:06;32.78;;;20.70;;
2644;SDS011;15377;48.540;9.268;2023-03-01T21:28:34;30.85;;;17.92;;
2644;SDS011;15377;48.540;9.268;2023-03-01T21:33:42;34.20;;;19.70;;
2644;SDS011;15377;48.540;9.268;2023-03-01T21:36:10;35.63;;;20.33;;
2644;SDS011;15377;48.540;9.268;2023-03-01T21:38:37;26.97;;;18.30;;
2644;SDS011;15377;48.540;9.268;2023-03-01T21:41:05;32.95;;;18.33;;
2644;SDS011;15377;48.540;9.268;2023-03-01T21:43:33;34.47;;;18.75;;
2644;SDS011;15377;48.540;9.268;2023-03-01T21:46:00;29.35;;;19.40;;
2644;SDS011;15377;48.540;9.268;2023-03-01T21:48:30;37.40;;;22.27;;
2644;SDS011;15377;48.540;9.268;2023-03-01T21:50:56;31.58;;;21.33;;
2644;SDS011;15377;48.540;9.268;2023-03-01T21:53:23;37.72;;;21.33;;
2644;SDS011;15377;48.540;9.268;2023-03-01T21:55:50;36.33;;;22.85;;
2644;SDS011;15377;48.540;9.268;2023-03-01T21:58:16;37.83;;;22.23;;
2644;SDS011;15377;48.540;9.268;2023-03-01T22:00:43;38.22;;;22.88;;
2644;SDS011;15377;48.540;9.268;2023-03-01T22:03:09;38.95;;;21.45;;
2644;SDS011;15377;48.540;9.268;2023-03-01T22:05:34;33.27;;;21.43;;
2644;SDS011;15377;48.540;9.268;2023-03-01T22:08:02;34.90;;;20.20;;
2644;SDS011;15377;48.540;9.268;2023-03-01T22:10:28;35.17;;;20.63;;
2644;SDS011;15377;48.540;9.268;2023-03-01T22:12:55;38.77;;;23.53;;
2644;SDS011;15377;48.540;9.268;2023-03-01T22:15:22;41.95;;;23.88;;
2644;SDS011;15377;48.540;9.268;2023-03-01T22:17:48;38.00;;;22.48;;
2644;SDS011;15377;48.540;9.268;2023-03-01T22:20:16;40.60;;;23.87;;
2644;SDS011;15377;48.540;9.268;2023-03-01T22:22:41;33.88;;;21.58;;
2644;SDS011;15377;48.540;9.268;2023-03-01T22:25:07;39.33;;;21.90;;
2644;SDS011;15377;48.540;9.268;2023-03-01T22:27:34;37.00;;;21.02;;
2644;SDS011;15377;48.540;9.268;2023-03-01T22:30:05;40.85;;;22.33;;
2644;SDS011;15377;48.540;9.268;2023-03-01T22:32:33;35.70;;;20.63;;
2644;SDS011;15377;48.540;9.268;2023-03-01T22:34:58;33.33;;;21.40;;
2644;SDS011;15377;48.540;9.268;2023-03-01T22:37:24;36.87;;;22.10;;
2644;SDS011;15377;48.540;9.268;2023-03-01T22:39:49;35.73;;;21.00;;
2644;SDS011;15377;48.540;9.268;2023-03-01T22:42:15;36.93;;;20.20;;
2644;SDS011;15377;48.540;9.268;2023-03-01T22:44:40;37.50;;;20.90;;
2644;SDS011;15377;48.540;9.268;2023-03-01T22:47:06;35.03;;;21.87;;
2644;SDS011;15377;48.540;9.268;2023-03-01T22:49:31;32.17;;;21.30;;
2644;SDS011;15377;48.540;9.268;2023-03-01T22:51:57;35.47;;;22.70;;
2644;SDS011;15377;48.540;9.268;2023-03-01T22:54:23;39.93;;;22.97;;
2644;SDS011;15377;48.540;9.268;2023-03-01T22:56:48;43.10;;;24.90;;
2644;SDS011;15377;48.540;9.268;2023-03-01T22:59:14;40.87;;;23.20;;
2644;SDS011;15377;48.540;9.268;2023-03-01T23:01:43;39.88;;;23.42;;
2644;SDS011;15377;48.540;9.268;2023-03-01T23:04:09;35.75;;;22.27;;
2644;SDS011;15377;48.540;9.268;2023-03-01T23:06:34;36.80;;;24.07;;
2644;SDS011;15377;48.540;9.268;2023-03-01T23:09:14;38.90;;;24.20;;
2644;SDS011;15377;48.540;9.268;2023-03-01T23:11:41;38.78;;;20.92;;
2644;SDS011;15377;48.540;9.268;2023-03-01T23:14:06;46.17;;;26.10;;
2644;SDS011;15377;48.540;9.268;2023-03-01T23:16:32;37.57;;;21.97;;
2644;SDS011;15377;48.540;9.268;2023-03-01T23:18:57;36.27;;;22.33;;
2644;SDS011;15377;48.540;9.268;2023-03-01T23:21:23;40.60;;;23.73;;
2644;SDS011;15377;48.540;9.268;2023-03-01T23:23:48;40.40;;;21.80;;
2644;SDS011;15377;48.540;9.268;2023-03-01T23:26:14;39.43;;;23.67;;
2644;SDS011;15377;48.540;9.268;2023-03-01T23:28:40;43.88;;;23.50;;
2644;SDS011;15377;48.540;9.268;2023-03-01T23:31:07;41.87;;;21.77;;
2644;SDS011;15377;48.540;9.268;2023-03-01T23:33:38;35.33;;;21.15;;
2644;SDS011;15377;48.540;9.268;2023-03-01T23:36:05;38.93;;;23.47;;
2644;SDS011;15377;48.540;9.268;2023-03-01T23:38:31;36.90;;;20.13;;
2644;SDS011;15377;48.540;9.268;2023-03-01T23:40:57;35.77;;;22.40;;
2644;SDS011;15377;48.540;9.268;2023-03-01T23:43:22;39.20;;;23.77;;
2644;SDS011;15377;48.540;9.268;2023-03-01T23:45:51;40.73;;;25.40;;
2644;SDS011;15377;48.540;9.268;2023-03-01T23:48:17;36.58;;;22.40;;
2644;SDS011;15377;48.540;9.268;2023-03-01T23:50:44;38.17;;;23.13;;
2644;SDS011;15377;48.540;9.268;2023-03-01T23:53:14;37.00;;;21.88;;
2644;SDS011;15377;48.540;9.268;2023-03-01T23:55:42;40.60;;;23.50;;
2644;SDS011;15377;48.540;9.268;2023-03-01T23:58:15;36.67;;;21.33;;
